createdAt,value
2018-01-01T00:00:46.409Z,0
2018-01-01T00:01:46.663Z,0
2018-01-01T00:02:46.653Z,0
2018-01-01T00:03:46.642Z,0
2018-01-01T00:04:46.370Z,0
2018-01-01T00:05:46.626Z,0
2018-01-01T00:06:46.628Z,0
2018-01-01T00:07:46.610Z,0
2018-01-01T00:08:46.102Z,0
2018-01-01T00:09:46.343Z,0
2018-01-01T00:10:46.324Z,0
2018-01-01T00:11:46.565Z,0
2018-01-01T00:12:46.641Z,0
2018-01-01T00:13:46.299Z,0
2018-01-01T00:14:46.555Z,0
2018-01-01T00:15:46.289Z,0
2018-01-01T00:16:46.542Z,0
2018-01-01T00:17:46.534Z,0
2018-01-01T00:18:46.514Z,0
2018-01-01T00:19:46.502Z,0
2018-01-01T00:20:45.993Z,0
2018-01-01T00:21:45.966Z,0
2018-01-01T00:22:45.975Z,0
2018-01-01T00:23:46.226Z,0
2018-01-01T00:24:46.467Z,0
2018-01-01T00:25:46.209Z,0
2018-01-01T00:26:46.437Z,0
2018-01-01T00:27:46.448Z,0
2018-01-01T00:28:46.418Z,0
2018-01-01T00:29:45.905Z,0
2018-01-01T00:30:46.159Z,0
2018-01-01T00:31:46.409Z,0
2018-01-01T00:32:46.395Z,0
2018-01-01T00:33:46.124Z,0
2018-01-01T00:34:46.383Z,0
2018-01-01T00:35:45.853Z,0
2018-01-01T00:36:46.367Z,0
2018-01-01T00:37:46.144Z,0
2018-01-01T00:38:46.074Z,0
2018-01-01T00:39:46.337Z,0
2018-01-01T00:40:46.073Z,0
2018-01-01T00:41:46.316Z,0
2018-01-01T00:42:46.294Z,0
2018-01-01T00:43:46.038Z,0
2018-01-01T00:44:46.339Z,0
2018-01-01T00:45:46.014Z,0
2018-01-01T00:46:45.759Z,0
2018-01-01T00:47:45.737Z,0
2018-01-01T00:48:46.250Z,0
2018-01-01T00:49:45.998Z,0
2018-01-01T00:50:45.985Z,0
2018-01-01T00:51:46.230Z,0
2018-01-01T00:52:45.954Z,0
2018-01-01T00:53:45.959Z,0
2018-01-01T00:54:46.207Z,0
2018-01-01T00:55:45.683Z,0
2018-01-01T00:56:46.184Z,0
2018-01-01T00:57:46.198Z,0
2018-01-01T00:58:46.176Z,0
2018-01-01T00:59:45.903Z,0
2018-01-01T01:00:45.897Z,0
2018-01-01T01:01:46.145Z,0
2018-01-01T01:02:46.141Z,0
2018-01-01T01:03:46.113Z,0
2018-01-01T01:04:45.595Z,0
2018-01-01T01:05:45.849Z,0
2018-01-01T01:06:45.834Z,0
2018-01-01T01:07:46.084Z,0
2018-01-01T01:08:46.122Z,0
2018-01-01T01:09:46.065Z,0
2018-01-01T01:10:45.807Z,0
2018-01-01T01:11:45.790Z,0
2018-01-01T01:12:46.035Z,0
2018-01-01T01:13:46.026Z,0
2018-01-01T01:14:46.016Z,0
2018-01-01T01:15:46.033Z,0
2018-01-01T01:16:45.755Z,0
2018-01-01T01:17:45.992Z,0
2018-01-01T01:18:45.985Z,0
2018-01-01T01:19:45.741Z,0
2018-01-01T01:20:45.982Z,0
2018-01-01T01:21:45.201Z,0
2018-01-01T01:22:45.950Z,0
2018-01-01T01:23:45.959Z,0
2018-01-01T01:24:45.957Z,0
2018-01-01T01:25:45.421Z,0
2018-01-01T01:26:45.691Z,0
2018-01-01T01:27:45.658Z,0
2018-01-01T01:28:45.404Z,0
2018-01-01T01:29:45.642Z,0
2018-01-01T01:30:45.905Z,0
2018-01-01T01:31:45.885Z,0
2018-01-01T01:32:45.876Z,0
2018-01-01T01:33:45.604Z,0
2018-01-01T01:34:45.869Z,0
2018-01-01T01:35:45.847Z,0
2018-01-01T01:36:45.834Z,0
2018-01-01T01:37:45.836Z,0
2018-01-01T01:38:45.579Z,0
2018-01-01T01:39:45.815Z,0
2018-01-01T01:40:45.550Z,0
2018-01-01T01:41:45.796Z,0
2018-01-01T01:42:45.811Z,0
2018-01-01T01:43:45.787Z,0
2018-01-01T01:44:45.509Z,0
2018-01-01T01:45:45.780Z,0
2018-01-01T01:46:45.512Z,0
2018-01-01T01:47:45.495Z,0
2018-01-01T01:48:45.736Z,0
2018-01-01T01:49:45.734Z,0
2018-01-01T01:50:45.744Z,0
2018-01-01T01:51:45.452Z,0
2018-01-01T01:52:45.699Z,0
2018-01-01T01:53:45.710Z,0
2018-01-01T01:54:45.689Z,0
2018-01-01T01:55:45.681Z,0
2018-01-01T01:56:45.410Z,0
2018-01-01T01:57:45.672Z,0
2018-01-01T01:58:45.392Z,0
2018-01-01T01:59:45.386Z,0
2018-01-01T02:00:45.656Z,0
2018-01-01T02:01:45.375Z,0
2018-01-01T02:02:45.107Z,0
2018-01-01T02:03:45.602Z,0
2018-01-01T02:04:45.612Z,0
2018-01-01T02:05:45.608Z,0
2018-01-01T02:06:45.348Z,0
2018-01-01T02:07:45.588Z,0
2018-01-01T02:08:45.593Z,0
2018-01-01T02:09:45.561Z,0
2018-01-01T02:10:45.298Z,0
2018-01-01T02:11:45.291Z,0
2018-01-01T02:12:45.540Z,0
2018-01-01T02:13:45.533Z,0
2018-01-01T02:14:45.275Z,0
2018-01-01T02:15:45.577Z,0
2018-01-01T02:16:45.258Z,0
2018-01-01T02:17:44.977Z,0
2018-01-01T02:18:45.481Z,0
2018-01-01T02:19:45.470Z,0
2018-01-01T02:20:45.470Z,0
2018-01-01T02:21:44.950Z,0
2018-01-01T02:22:45.460Z,0
2018-01-01T02:23:45.437Z,0
2018-01-01T02:24:45.439Z,0
2018-01-01T02:25:45.430Z,0
2018-01-01T02:26:44.920Z,0
2018-01-01T02:27:45.408Z,0
2018-01-01T02:28:45.145Z,0
2018-01-01T02:29:45.400Z,0
2018-01-01T02:30:45.204Z,0
2018-01-01T02:31:45.401Z,0
2018-01-01T02:32:45.391Z,0
2018-01-01T02:33:45.370Z,0
2018-01-01T02:34:45.116Z,0
2018-01-01T02:35:45.091Z,0
2018-01-01T02:36:45.096Z,0
2018-01-01T02:37:45.078Z,0
2018-01-01T02:38:44.817Z,0
2018-01-01T02:39:45.051Z,0
2018-01-01T02:40:45.321Z,0
2018-01-01T02:41:45.313Z,0
2018-01-01T02:42:45.353Z,0
2018-01-01T02:43:45.035Z,0
2018-01-01T02:44:45.270Z,0
2018-01-01T02:45:45.009Z,0
2018-01-01T02:46:44.997Z,0
2018-01-01T02:47:45.249Z,0
2018-01-01T02:48:45.246Z,0
2018-01-01T02:49:45.232Z,0
2018-01-01T02:50:44.967Z,0
2018-01-01T02:51:45.244Z,0
2018-01-01T02:52:44.971Z,0
2018-01-01T02:53:45.211Z,0
2018-01-01T02:54:45.199Z,0
2018-01-01T02:55:45.188Z,0
2018-01-01T02:56:45.191Z,0
2018-01-01T02:57:45.171Z,0
2018-01-01T02:58:44.920Z,0
2018-01-01T02:59:45.155Z,0
2018-01-01T03:00:44.917Z,0
2018-01-01T03:01:45.153Z,0
2018-01-01T03:02:45.131Z,0
2018-01-01T03:03:44.867Z,0
2018-01-01T03:04:44.866Z,0
2018-01-01T03:05:44.843Z,0
2018-01-01T03:06:45.097Z,0
2018-01-01T03:07:45.096Z,0
2018-01-01T03:08:45.092Z,0
2018-01-01T03:09:45.083Z,0
2018-01-01T03:10:45.067Z,0
2018-01-01T03:11:45.076Z,0
2018-01-01T03:12:45.057Z,0
2018-01-01T03:13:45.033Z,0
2018-01-01T03:14:44.780Z,0
2018-01-01T03:15:45.026Z,0
2018-01-01T03:16:44.753Z,0
2018-01-01T03:17:44.746Z,0
2018-01-01T03:18:45.001Z,0
2018-01-01T03:19:44.757Z,0
2018-01-01T03:20:44.724Z,0
2018-01-01T03:21:44.973Z,0
2018-01-01T03:22:44.455Z,0
2018-01-01T03:23:44.967Z,0
2018-01-01T03:24:44.946Z,0
2018-01-01T03:25:44.937Z,0
2018-01-01T03:26:44.681Z,0
2018-01-01T03:27:44.677Z,0
2018-01-01T03:28:44.925Z,0
2018-01-01T03:29:44.135Z,0
2018-01-01T03:30:44.920Z,0
2018-01-01T03:31:44.891Z,0
2018-01-01T03:32:44.902Z,0
2018-01-01T03:33:44.891Z,0
2018-01-01T03:34:44.614Z,0
2018-01-01T03:35:44.859Z,0
2018-01-01T03:36:44.856Z,0
2018-01-01T03:37:44.854Z,0
2018-01-01T03:38:44.580Z,0
2018-01-01T03:39:44.834Z,0
2018-01-01T03:40:44.843Z,0
2018-01-01T03:41:44.824Z,0
2018-01-01T03:42:44.813Z,0
2018-01-01T03:43:44.792Z,0
2018-01-01T03:44:44.799Z,0
2018-01-01T03:45:44.777Z,0
2018-01-01T03:46:44.505Z,0
2018-01-01T03:47:44.510Z,0
2018-01-01T03:48:44.752Z,0
2018-01-01T03:49:44.753Z,0
2018-01-01T03:50:44.238Z,0
2018-01-01T03:51:44.760Z,0
2018-01-01T03:52:44.722Z,0
2018-01-01T03:53:44.708Z,0
2018-01-01T03:54:44.453Z,0
2018-01-01T03:55:44.434Z,0
2018-01-01T03:56:44.694Z,0
2018-01-01T03:57:44.173Z,0
2018-01-01T03:58:44.662Z,0
2018-01-01T03:59:44.665Z,0
2018-01-01T04:00:44.391Z,0
2018-01-01T04:01:44.385Z,0
2018-01-01T04:02:44.641Z,0
2018-01-01T04:03:44.617Z,0
2018-01-01T04:04:44.363Z,0
2018-01-01T04:05:44.623Z,0
2018-01-01T04:06:44.610Z,0
2018-01-01T04:07:44.595Z,0
2018-01-01T04:08:44.575Z,0
2018-01-01T04:09:44.570Z,0
2018-01-01T04:10:44.569Z,0
2018-01-01T04:11:44.558Z,0
2018-01-01T04:12:44.549Z,0
2018-01-01T04:13:44.545Z,0
2018-01-01T04:14:44.271Z,0
2018-01-01T04:15:44.528Z,0
2018-01-01T04:16:44.519Z,0
2018-01-01T04:17:44.529Z,0
2018-01-01T04:18:44.492Z,0
2018-01-01T04:19:44.506Z,0
2018-01-01T04:20:44.499Z,0
2018-01-01T04:21:44.486Z,0
2018-01-01T04:22:43.959Z,0
2018-01-01T04:23:44.455Z,0
2018-01-01T04:24:44.183Z,0
2018-01-01T04:25:44.436Z,0
2018-01-01T04:26:44.176Z,0
2018-01-01T04:27:44.419Z,0
2018-01-01T04:28:44.171Z,0
2018-01-01T04:29:44.424Z,0
2018-01-01T04:30:44.148Z,0
2018-01-01T04:31:44.130Z,0
2018-01-01T04:32:44.130Z,0
2018-01-01T04:33:44.121Z,0
2018-01-01T04:34:44.106Z,0
2018-01-01T04:35:44.352Z,0
2018-01-01T04:36:44.102Z,0
2018-01-01T04:37:44.339Z,0
2018-01-01T04:38:44.338Z,0
2018-01-01T04:39:44.079Z,0
2018-01-01T04:40:44.299Z,0
2018-01-01T04:41:44.044Z,0
2018-01-01T04:42:44.047Z,0
2018-01-01T04:43:44.292Z,0
2018-01-01T04:44:44.276Z,0
2018-01-01T04:45:44.276Z,0
2018-01-01T04:46:44.004Z,0
2018-01-01T04:47:44.268Z,0
2018-01-01T04:48:44.256Z,0
2018-01-01T04:49:44.243Z,0
2018-01-01T04:50:44.226Z,0
2018-01-01T04:51:43.963Z,0
2018-01-01T04:52:44.202Z,0
2018-01-01T04:53:44.208Z,0
2018-01-01T04:54:44.201Z,0
2018-01-01T04:55:44.182Z,0
2018-01-01T04:56:44.180Z,0
2018-01-01T04:57:44.168Z,0
2018-01-01T04:58:44.167Z,0
2018-01-01T04:59:44.142Z,0
2018-01-01T05:00:44.153Z,0
2018-01-01T05:01:44.150Z,0
2018-01-01T05:02:44.131Z,0
2018-01-01T05:03:43.620Z,0
2018-01-01T05:04:44.114Z,0
2018-01-01T05:05:43.589Z,0
2018-01-01T05:06:43.826Z,0
2018-01-01T05:07:44.087Z,0
2018-01-01T05:08:43.805Z,0
2018-01-01T05:09:43.547Z,0
2018-01-01T05:10:43.789Z,0
2018-01-01T05:11:43.795Z,0
2018-01-01T05:12:44.048Z,0
2018-01-01T05:13:44.038Z,0
2018-01-01T05:14:44.016Z,0
2018-01-01T05:15:44.014Z,0
2018-01-01T05:16:44.001Z,0
2018-01-01T05:17:43.733Z,0
2018-01-01T05:18:43.984Z,0
2018-01-01T05:19:43.969Z,0
2018-01-01T05:20:43.961Z,0
2018-01-01T05:21:43.959Z,0
2018-01-01T05:22:43.963Z,0
2018-01-01T05:23:43.934Z,0
2018-01-01T05:24:43.668Z,0
2018-01-01T05:25:43.662Z,0
2018-01-01T05:26:43.660Z,0
2018-01-01T05:27:43.893Z,0
2018-01-01T05:28:43.888Z,0
2018-01-01T05:29:43.632Z,0
2018-01-01T05:30:43.873Z,0
2018-01-01T05:31:43.857Z,0
2018-01-01T05:32:43.857Z,0
2018-01-01T05:33:43.854Z,0
2018-01-01T05:34:43.581Z,0
2018-01-01T05:35:43.826Z,0
2018-01-01T05:36:43.564Z,0
2018-01-01T05:37:43.548Z,0
2018-01-01T05:38:43.551Z,0
2018-01-01T05:39:43.526Z,0
2018-01-01T05:40:43.787Z,0
2018-01-01T05:41:43.777Z,0
2018-01-01T05:42:43.764Z,0
2018-01-01T05:43:43.753Z,0
2018-01-01T05:44:43.765Z,0
2018-01-01T05:45:43.741Z,0
2018-01-01T05:46:43.746Z,0
2018-01-01T05:47:43.515Z,0
2018-01-01T05:48:43.719Z,0
2018-01-01T05:49:43.712Z,0
2018-01-01T05:50:43.703Z,0
2018-01-01T05:51:43.682Z,0
2018-01-01T05:52:43.692Z,0
2018-01-01T05:53:43.429Z,0
2018-01-01T05:54:43.410Z,0
2018-01-01T05:55:43.391Z,0
2018-01-01T05:56:43.629Z,0
2018-01-01T05:57:43.622Z,0
2018-01-01T05:58:43.631Z,0
2018-01-01T05:59:43.625Z,0
2018-01-01T06:00:43.646Z,0
2018-01-01T06:01:43.602Z,0
2018-01-01T06:02:43.320Z,0
2018-01-01T06:03:43.310Z,0
2018-01-01T06:04:43.309Z,0
2018-01-01T06:05:43.298Z,0
2018-01-01T06:06:43.582Z,0
2018-01-01T06:07:43.537Z,0
2018-01-01T06:08:43.271Z,0
2018-01-01T06:09:43.522Z,0
2018-01-01T06:10:43.251Z,0
2018-01-01T06:11:43.503Z,0
2018-01-01T06:12:43.498Z,0
2018-01-01T06:13:43.490Z,0
2018-01-01T06:14:43.511Z,0
2018-01-01T06:15:43.474Z,0
2018-01-01T06:16:43.442Z,0
2018-01-01T06:17:43.457Z,0
2018-01-01T06:18:43.172Z,0
2018-01-01T06:19:43.436Z,0
2018-01-01T06:20:43.416Z,0
2018-01-01T06:21:43.424Z,0
2018-01-01T06:22:43.397Z,0
2018-01-01T06:23:43.132Z,0
2018-01-01T06:24:43.142Z,0
2018-01-01T06:25:43.365Z,0
2018-01-01T06:26:43.122Z,0
2018-01-01T06:27:43.355Z,0
2018-01-01T06:28:43.347Z,0
2018-01-01T06:29:43.083Z,0
2018-01-01T06:30:43.061Z,0
2018-01-01T06:31:43.336Z,0
2018-01-01T06:32:43.310Z,0
2018-01-01T06:33:43.038Z,0
2018-01-01T06:34:43.289Z,0
2018-01-01T06:35:43.040Z,0
2018-01-01T06:36:42.757Z,0
2018-01-01T06:37:43.292Z,0
2018-01-01T06:38:43.258Z,0
2018-01-01T06:39:43.253Z,0
2018-01-01T06:40:43.225Z,0
2018-01-01T06:41:43.244Z,0
2018-01-01T06:42:43.216Z,0
2018-01-01T06:43:43.006Z,4
2018-01-01T06:44:43.219Z,0
2018-01-01T06:45:42.948Z,4
2018-01-01T06:46:43.188Z,4
2018-01-01T06:47:43.168Z,4
2018-01-01T06:48:43.164Z,4
2018-01-01T06:49:43.157Z,8
2018-01-01T06:50:43.147Z,8
2018-01-01T06:51:43.127Z,12
2018-01-01T06:52:43.115Z,12
2018-01-01T06:53:43.120Z,16
2018-01-01T06:54:42.848Z,20
2018-01-01T06:55:42.844Z,24
2018-01-01T06:56:43.095Z,28
2018-01-01T06:57:43.099Z,36
2018-01-01T06:58:43.065Z,40
2018-01-01T06:59:43.053Z,48
2018-01-01T07:00:43.048Z,60
2018-01-01T07:01:43.034Z,68
2018-01-01T07:02:43.043Z,76
2018-01-01T07:03:43.022Z,84
2018-01-01T07:04:43.011Z,92
2018-01-01T07:05:43.057Z,104
2018-01-01T07:06:43.004Z,108
2018-01-01T07:07:42.996Z,120
2018-01-01T07:08:42.963Z,128
2018-01-01T07:09:42.713Z,144
2018-01-01T07:10:42.945Z,164
2018-01-01T07:11:42.948Z,188
2018-01-01T07:12:42.928Z,216
2018-01-01T07:13:42.952Z,232
2018-01-01T07:14:42.659Z,252
2018-01-01T07:15:42.682Z,268
2018-01-01T07:16:42.898Z,284
2018-01-01T07:17:42.890Z,300
2018-01-01T07:18:42.894Z,316
2018-01-01T07:19:42.359Z,324
2018-01-01T07:20:42.611Z,336
2018-01-01T07:21:42.918Z,356
2018-01-01T07:22:42.586Z,384
2018-01-01T07:23:42.578Z,416
2018-01-01T07:24:42.823Z,440
2018-01-01T07:25:42.562Z,468
2018-01-01T07:26:42.553Z,492
2018-01-01T07:27:42.549Z,516
2018-01-01T07:28:42.525Z,548
2018-01-01T07:29:42.772Z,592
2018-01-01T07:30:42.245Z,656
2018-01-01T07:31:42.493Z,704
2018-01-01T07:32:42.743Z,772
2018-01-01T07:33:42.760Z,852
2018-01-01T07:34:42.733Z,948
2018-01-01T07:35:42.707Z,1020
2018-01-01T07:36:42.705Z,1064
2018-01-01T07:37:42.714Z,1100
2018-01-01T07:38:42.676Z,1164
2018-01-01T07:39:42.684Z,1212
2018-01-01T07:40:42.658Z,1256
2018-01-01T07:41:42.663Z,1328
2018-01-01T07:42:42.400Z,1400
2018-01-01T07:43:42.635Z,1412
2018-01-01T07:44:42.362Z,1428
2018-01-01T07:45:42.106Z,1444
2018-01-01T07:46:42.623Z,1484
2018-01-01T07:47:42.599Z,1544
2018-01-01T07:48:42.581Z,1584
2018-01-01T07:49:42.585Z,1604
2018-01-01T07:50:42.559Z,1608
2018-01-01T07:51:42.560Z,1616
2018-01-01T07:52:42.542Z,1640
2018-01-01T07:53:42.547Z,1664
2018-01-01T07:54:42.530Z,1680
2018-01-01T07:55:42.508Z,1720
2018-01-01T07:56:42.503Z,1756
2018-01-01T07:57:42.229Z,1840
2018-01-01T07:58:42.493Z,1940
2018-01-01T07:59:42.471Z,1936
2018-01-01T08:00:42.478Z,1888
2018-01-01T08:01:42.451Z,1880
2018-01-01T08:02:42.443Z,1948
2018-01-01T08:03:42.433Z,2076
2018-01-01T08:04:42.443Z,2240
2018-01-01T08:05:41.907Z,2400
2018-01-01T08:06:42.395Z,2468
2018-01-01T08:07:42.412Z,2432
2018-01-01T08:08:42.398Z,2320
2018-01-01T08:09:42.374Z,2260
2018-01-01T08:10:42.355Z,2340
2018-01-01T08:11:42.449Z,2448
2018-01-01T08:12:42.338Z,2520
2018-01-01T08:13:42.337Z,2604
2018-01-01T08:14:41.809Z,2668
2018-01-01T08:15:42.300Z,2608
2018-01-01T08:16:42.053Z,2508
2018-01-01T08:17:42.085Z,2436
2018-01-01T08:18:42.028Z,2488
2018-01-01T08:19:42.289Z,2560
2018-01-01T08:20:42.273Z,2640
2018-01-01T08:21:42.260Z,2808
2018-01-01T08:22:41.999Z,3056
2018-01-01T08:23:41.977Z,3172
2018-01-01T08:24:41.710Z,3196
2018-01-01T08:25:42.209Z,3352
2018-01-01T08:26:42.210Z,3512
2018-01-01T08:27:41.943Z,3692
2018-01-01T08:28:42.178Z,3684
2018-01-01T08:29:41.907Z,3852
2018-01-01T08:30:42.158Z,3868
2018-01-01T08:31:42.139Z,3648
2018-01-01T08:32:42.148Z,3360
2018-01-01T08:33:42.135Z,3128
2018-01-01T08:34:41.862Z,3100
2018-01-01T08:35:41.853Z,3160
2018-01-01T08:36:42.108Z,3296
2018-01-01T08:37:41.841Z,4008
2018-01-01T08:38:42.079Z,4720
2018-01-01T08:39:42.118Z,5040
2018-01-01T08:40:42.059Z,4572
2018-01-01T08:41:42.049Z,4096
2018-01-01T08:42:42.056Z,4108
2018-01-01T08:43:41.770Z,4020
2018-01-01T08:44:42.023Z,3944
2018-01-01T08:45:41.997Z,4000
2018-01-01T08:46:42.032Z,4160
2018-01-01T08:47:42.047Z,4352
2018-01-01T08:48:41.986Z,4196
2018-01-01T08:49:41.721Z,3960
2018-01-01T08:50:41.956Z,4276
2018-01-01T08:51:41.940Z,4972
2018-01-01T08:52:41.973Z,4892
2018-01-01T08:53:41.693Z,4924
2018-01-01T08:54:41.915Z,4688
2018-01-01T08:55:41.643Z,4096
2018-01-01T08:56:41.908Z,3916
2018-01-01T08:57:41.376Z,3884
2018-01-01T08:58:41.938Z,3800
2018-01-01T08:59:41.871Z,4132
2018-01-01T09:00:41.861Z,3992
2018-01-01T09:01:41.850Z,3708
2018-01-01T09:02:41.862Z,3684
2018-01-01T09:03:41.833Z,3648
2018-01-01T09:04:41.831Z,3496
2018-01-01T09:05:41.848Z,3412
2018-01-01T09:06:41.555Z,3408
2018-01-01T09:07:41.809Z,3856
2018-01-01T09:08:41.796Z,4240
2018-01-01T09:09:41.769Z,3996
2018-01-01T09:10:41.775Z,3952
2018-01-01T09:11:41.766Z,3908
2018-01-01T09:12:41.743Z,3904
2018-01-01T09:13:41.472Z,4296
2018-01-01T09:14:41.723Z,5372
2018-01-01T09:15:41.204Z,5184
2018-01-01T09:16:41.699Z,4424
2018-01-01T09:17:41.688Z,4412
2018-01-01T09:18:41.703Z,4384
2018-01-01T09:19:41.429Z,4072
2018-01-01T09:20:41.672Z,3824
2018-01-01T09:21:41.657Z,4132
2018-01-01T09:22:41.404Z,4860
2018-01-01T09:23:41.396Z,5440
2018-01-01T09:24:41.640Z,5476
2018-01-01T09:25:41.372Z,5112
2018-01-01T09:26:41.363Z,4728
2018-01-01T09:27:41.617Z,4372
2018-01-01T09:28:41.595Z,3920
2018-01-01T09:29:41.332Z,3580
2018-01-01T09:30:41.580Z,3532
2018-01-01T09:31:41.576Z,3736
2018-01-01T09:32:41.586Z,4056
2018-01-01T09:33:41.038Z,4272
2018-01-01T09:34:41.532Z,4280
2018-01-01T09:35:41.296Z,4136
2018-01-01T09:36:41.521Z,4132
2018-01-01T09:37:40.996Z,4020
2018-01-01T09:38:41.517Z,4576
2018-01-01T09:39:41.527Z,4868
2018-01-01T09:40:41.489Z,4924
2018-01-01T09:41:41.481Z,4508
2018-01-01T09:42:41.460Z,3968
2018-01-01T09:43:41.467Z,3800
2018-01-01T09:44:41.200Z,3724
2018-01-01T09:45:41.186Z,3668
2018-01-01T09:46:41.425Z,3832
2018-01-01T09:47:41.165Z,4044
2018-01-01T09:48:41.413Z,4136
2018-01-01T09:49:41.411Z,4084
2018-01-01T09:50:41.140Z,4296
2018-01-01T09:51:40.870Z,4924
2018-01-01T09:52:41.373Z,5212
2018-01-01T09:53:41.362Z,4688
2018-01-01T09:54:41.100Z,4380
2018-01-01T09:55:41.339Z,4460
2018-01-01T09:56:41.345Z,4488
2018-01-01T09:57:41.339Z,4428
2018-01-01T09:58:41.307Z,4428
2018-01-01T09:59:41.307Z,4484
2018-01-01T10:00:41.321Z,4420
2018-01-01T10:01:41.046Z,4296
2018-01-01T10:02:41.283Z,4168
2018-01-01T10:03:40.753Z,4032
2018-01-01T10:04:41.281Z,4100
2018-01-01T10:05:41.262Z,4340
2018-01-01T10:06:41.245Z,4736
2018-01-01T10:07:41.233Z,4884
2018-01-01T10:08:41.241Z,4780
2018-01-01T10:09:41.216Z,4772
2018-01-01T10:10:41.212Z,4524
2018-01-01T10:11:41.242Z,4260
2018-01-01T10:12:41.194Z,4068
2018-01-01T10:13:40.417Z,3856
2018-01-01T10:14:41.185Z,3888
2018-01-01T10:15:41.230Z,4080
2018-01-01T10:16:40.893Z,4136
2018-01-01T10:17:40.894Z,4100
2018-01-01T10:18:40.899Z,3908
2018-01-01T10:19:40.612Z,3700
2018-01-01T10:20:41.115Z,3704
2018-01-01T10:21:41.106Z,3800
2018-01-01T10:22:40.601Z,3784
2018-01-01T10:23:40.844Z,3912
2018-01-01T10:24:40.835Z,3992
2018-01-01T10:25:41.075Z,4156
2018-01-01T10:26:41.067Z,4532
2018-01-01T10:27:41.061Z,4680
2018-01-01T10:28:41.060Z,4700
2018-01-01T10:29:41.037Z,4344
2018-01-01T10:30:41.021Z,3948
2018-01-01T10:31:41.014Z,3784
2018-01-01T10:32:40.766Z,3636
2018-01-01T10:33:41.006Z,3812
2018-01-01T10:34:40.981Z,4132
2018-01-01T10:35:40.984Z,4512
2018-01-01T10:36:40.730Z,4716
2018-01-01T10:37:40.989Z,4820
2018-01-01T10:38:40.451Z,5188
2018-01-01T10:39:40.708Z,6116
2018-01-01T10:40:40.937Z,6084
2018-01-01T10:41:40.666Z,5764
2018-01-01T10:42:40.923Z,4608
2018-01-01T10:43:40.926Z,4280
2018-01-01T10:44:40.916Z,5008
2018-01-01T10:45:40.896Z,5216
2018-01-01T10:46:40.373Z,5224
2018-01-01T10:47:40.625Z,5564
2018-01-01T10:48:40.628Z,6040
2018-01-01T10:49:40.878Z,6272
2018-01-01T10:50:40.861Z,7536
2018-01-01T10:51:40.851Z,7300
2018-01-01T10:52:40.621Z,6940
2018-01-01T10:53:40.577Z,7356
2018-01-01T10:54:40.809Z,6888
2018-01-01T10:55:40.807Z,6840
2018-01-01T10:56:40.796Z,6972
2018-01-01T10:57:40.533Z,6796
2018-01-01T10:58:40.533Z,6448
2018-01-01T10:59:40.777Z,6532
2018-01-01T11:00:40.772Z,5408
2018-01-01T11:01:40.765Z,5116
2018-01-01T11:02:40.751Z,5596
2018-01-01T11:03:40.489Z,6448
2018-01-01T11:04:40.735Z,7188
2018-01-01T11:05:40.787Z,6452
2018-01-01T11:06:40.710Z,7204
2018-01-01T11:07:40.456Z,7056
2018-01-01T11:08:40.454Z,8020
2018-01-01T11:09:40.705Z,8184
2018-01-01T11:10:40.426Z,7988
2018-01-01T11:11:40.674Z,7676
2018-01-01T11:12:40.668Z,7952
2018-01-01T11:13:40.651Z,7180
2018-01-01T11:14:40.683Z,6620
2018-01-01T11:15:40.668Z,6500
2018-01-01T11:16:40.703Z,6036
2018-01-01T11:17:40.363Z,5868
2018-01-01T11:18:40.617Z,5696
2018-01-01T11:19:40.358Z,5344
2018-01-01T11:20:40.610Z,5092
2018-01-01T11:21:40.595Z,5444
2018-01-01T11:22:40.577Z,4668
2018-01-01T11:23:40.322Z,4520
2018-01-01T11:24:40.582Z,4516
2018-01-01T11:25:40.557Z,4272
2018-01-01T11:26:40.549Z,4132
2018-01-01T11:27:40.571Z,4008
2018-01-01T11:28:40.028Z,3768
2018-01-01T11:29:40.288Z,3600
2018-01-01T11:30:40.280Z,3920
2018-01-01T11:31:40.268Z,4352
2018-01-01T11:32:40.519Z,4476
2018-01-01T11:33:40.248Z,4408
2018-01-01T11:34:40.498Z,4204
2018-01-01T11:35:40.473Z,3984
2018-01-01T11:36:40.472Z,3852
2018-01-01T11:37:40.471Z,3792
2018-01-01T11:38:40.221Z,3596
2018-01-01T11:39:40.475Z,3600
2018-01-01T11:40:40.463Z,3580
2018-01-01T11:41:40.178Z,3532
2018-01-01T11:42:40.440Z,3508
2018-01-01T11:43:40.434Z,3496
2018-01-01T11:44:40.492Z,3476
2018-01-01T11:45:40.161Z,3448
2018-01-01T11:46:40.150Z,3428
2018-01-01T11:47:40.394Z,3412
2018-01-01T11:48:40.130Z,3400
2018-01-01T11:49:40.370Z,3388
2018-01-01T11:50:40.363Z,3384
2018-01-01T11:51:40.353Z,3400
2018-01-01T11:52:40.101Z,3388
2018-01-01T11:53:40.335Z,3360
2018-01-01T11:54:40.324Z,3348
2018-01-01T11:55:40.083Z,3296
2018-01-01T11:56:40.326Z,3332
2018-01-01T11:57:40.055Z,3324
2018-01-01T11:58:40.304Z,3328
2018-01-01T11:59:40.300Z,3524
2018-01-01T12:00:40.281Z,3472
2018-01-01T12:01:40.253Z,3348
2018-01-01T12:02:40.254Z,3364
2018-01-01T12:03:39.992Z,3412
2018-01-01T12:04:40.235Z,3560
2018-01-01T12:05:40.247Z,4200
2018-01-01T12:06:39.962Z,4656
2018-01-01T12:07:39.948Z,4868
2018-01-01T12:08:39.941Z,4468
2018-01-01T12:09:39.942Z,4876
2018-01-01T12:10:40.214Z,5632
2018-01-01T12:11:39.917Z,5220
2018-01-01T12:12:39.914Z,4944
2018-01-01T12:13:40.173Z,5720
2018-01-01T12:14:39.898Z,5744
2018-01-01T12:15:40.133Z,5276
2018-01-01T12:16:39.882Z,4672
2018-01-01T12:17:40.118Z,3808
2018-01-01T12:18:40.134Z,3860
2018-01-01T12:19:40.113Z,4436
2018-01-01T12:20:40.135Z,4924
2018-01-01T12:21:40.099Z,4380
2018-01-01T12:22:40.069Z,5220
2018-01-01T12:23:40.110Z,5904
2018-01-01T12:24:39.809Z,5544
2018-01-01T12:25:39.799Z,5192
2018-01-01T12:26:39.787Z,4540
2018-01-01T12:27:40.029Z,3936
2018-01-01T12:28:40.017Z,4364
2018-01-01T12:29:40.064Z,4768
2018-01-01T12:30:39.763Z,4724
2018-01-01T12:31:39.749Z,4200
2018-01-01T12:32:39.739Z,3988
2018-01-01T12:33:39.979Z,3876
2018-01-01T12:34:39.706Z,3484
2018-01-01T12:35:39.964Z,3540
2018-01-01T12:36:39.697Z,3632
2018-01-01T12:37:39.680Z,3624
2018-01-01T12:38:39.684Z,4020
2018-01-01T12:39:39.424Z,4088
2018-01-01T12:40:39.655Z,4232
2018-01-01T12:41:39.668Z,4264
2018-01-01T12:42:39.639Z,4152
2018-01-01T12:43:39.638Z,4356
2018-01-01T12:44:39.876Z,4512
2018-01-01T12:45:39.620Z,4196
2018-01-01T12:46:39.862Z,4132
2018-01-01T12:47:39.606Z,3796
2018-01-01T12:48:39.596Z,4280
2018-01-01T12:49:39.593Z,4680
2018-01-01T12:50:39.583Z,4712
2018-01-01T12:51:39.821Z,4528
2018-01-01T12:52:39.844Z,4288
2018-01-01T12:53:39.859Z,4396
2018-01-01T12:54:39.792Z,4000
2018-01-01T12:55:39.789Z,4104
2018-01-01T12:56:39.778Z,4380
2018-01-01T12:57:39.548Z,4424
2018-01-01T12:58:39.765Z,3636
2018-01-01T12:59:39.756Z,3032
2018-01-01T13:00:39.756Z,2528
2018-01-01T13:01:39.742Z,2440
2018-01-01T13:02:39.748Z,2440
2018-01-01T13:03:39.476Z,2036
2018-01-01T13:04:39.972Z,1936
2018-01-01T13:05:39.732Z,2664
2018-01-01T13:06:39.463Z,3004
2018-01-01T13:07:39.702Z,3280
2018-01-01T13:08:39.435Z,3364
2018-01-01T13:09:39.425Z,3324
2018-01-01T13:10:39.665Z,3792
2018-01-01T13:11:39.152Z,3968
2018-01-01T13:12:39.660Z,3628
2018-01-01T13:13:39.645Z,3764
2018-01-01T13:14:39.390Z,3816
2018-01-01T13:15:39.634Z,3568
2018-01-01T13:16:39.363Z,3304
2018-01-01T13:17:39.620Z,3188
2018-01-01T13:18:39.344Z,3792
2018-01-01T13:19:39.596Z,4904
2018-01-01T13:20:39.336Z,4872
2018-01-01T13:21:39.327Z,4248
2018-01-01T13:22:39.564Z,3784
2018-01-01T13:23:39.048Z,3636
2018-01-01T13:24:39.565Z,3368
2018-01-01T13:25:39.029Z,3396
2018-01-01T13:26:39.536Z,3392
2018-01-01T13:27:39.531Z,3124
2018-01-01T13:28:39.001Z,2928
2018-01-01T13:29:39.511Z,2908
2018-01-01T13:30:38.993Z,3932
2018-01-01T13:31:39.483Z,3932
2018-01-01T13:32:39.579Z,3948
2018-01-01T13:33:39.475Z,3728
2018-01-01T13:34:39.681Z,3068
2018-01-01T13:35:39.480Z,2612
2018-01-01T13:36:39.203Z,2364
2018-01-01T13:37:39.441Z,2328
2018-01-01T13:38:39.440Z,2368
2018-01-01T13:39:39.416Z,2340
2018-01-01T13:40:39.151Z,2192
2018-01-01T13:41:39.426Z,2092
2018-01-01T13:42:39.425Z,2068
2018-01-01T13:43:39.392Z,2052
2018-01-01T13:44:39.127Z,2032
2018-01-01T13:45:39.368Z,2016
2018-01-01T13:46:39.358Z,2060
2018-01-01T13:47:39.354Z,2220
2018-01-01T13:48:39.383Z,2080
2018-01-01T13:49:39.337Z,2068
2018-01-01T13:50:39.076Z,2172
2018-01-01T13:51:39.321Z,2312
2018-01-01T13:52:39.322Z,2116
2018-01-01T13:53:39.296Z,1872
2018-01-01T13:54:39.280Z,1736
2018-01-01T13:55:39.285Z,1572
2018-01-01T13:56:39.265Z,1440
2018-01-01T13:57:39.250Z,1268
2018-01-01T13:58:39.256Z,1312
2018-01-01T13:59:39.240Z,1416
2018-01-01T14:00:38.980Z,1296
2018-01-01T14:01:38.970Z,1288